createdAt,value
2022-12-25T00:05:48.826Z,84.43
2022-12-25T00:11:51.549Z,84.88
2022-12-25T00:18:03.037Z,85.50
2022-12-25T00:30:26.077Z,90.09
2022-12-25T00:36:34.906Z,90.67
2022-12-25T00:42:40.016Z,89.63
2022-12-25T00:48:42.465Z,90.11
2022-12-25T00:54:45.029Z,89.97
2022-12-25T01:00:59.120Z,90.07
2022-12-25T01:07:01.938Z,89.75
2022-12-25T01:13:05.198Z,89.64
2022-12-25T01:19:09.856Z,89.75
2022-12-25T01:25:14.376Z,89.59
2022-12-25T01:31:20.939Z,88.99
2022-12-25T01:37:29.251Z,88.88
2022-12-25T01:43:35.490Z,89.19
2022-12-25T01:49:41.207Z,89.26
2022-12-25T01:55:47.707Z,88.78
2022-12-25T02:01:50.315Z,88.27
2022-12-25T02:07:53.614Z,87.84
2022-12-25T02:14:04.474Z,87.17
2022-12-25T02:20:22.651Z,86.94
2022-12-25T02:26:50.184Z,86.67
2022-12-25T02:33:41.796Z,86.00
2022-12-25T02:40:00.788Z,86.30
2022-12-25T02:46:33.978Z,85.86
2022-12-25T02:52:55.029Z,85.31
2022-12-25T02:59:18.423Z,85.57
2022-12-25T03:05:44.665Z,85.55
2022-12-25T03:12:01.128Z,85.53
2022-12-25T03:18:07.660Z,85.61
2022-12-25T03:24:31.226Z,85.46
2022-12-25T03:31:01.873Z,85.33
2022-12-25T03:37:37.376Z,85.40
2022-12-25T03:44:23.073Z,85.21
2022-12-25T03:50:57.641Z,85.40
2022-12-25T03:57:29.178Z,85.12
2022-12-25T04:03:50.833Z,84.85
2022-12-25T04:10:11.376Z,85.17
2022-12-25T04:16:32.786Z,84.81
2022-12-25T04:22:53.319Z,84.59
2022-12-25T04:29:16.039Z,85.18
2022-12-25T04:35:37.432Z,85.09
2022-12-25T04:41:42.940Z,85.56
2022-12-25T04:47:44.678Z,85.30
2022-12-25T04:53:50.852Z,85.65
2022-12-25T04:59:59.310Z,85.58
2022-12-25T05:06:08.057Z,85.37
2022-12-25T05:12:15.326Z,85.34
2022-12-25T05:18:23.843Z,85.93
2022-12-25T05:24:28.275Z,85.73
2022-12-25T05:30:30.763Z,85.24
2022-12-25T05:36:33.248Z,85.25
2022-12-25T05:42:36.864Z,84.91
2022-12-25T05:48:39.577Z,84.64
2022-12-25T05:54:41.705Z,84.51
2022-12-25T06:00:45.199Z,84.23
2022-12-25T06:06:50.713Z,84.63
2022-12-25T06:12:53.136Z,84.79
2022-12-25T06:18:55.628Z,84.71
2022-12-25T06:25:01.108Z,84.57
2022-12-25T06:31:13.634Z,84.55
2022-12-25T06:37:17.489Z,84.49
2022-12-25T06:43:21.270Z,84.38
2022-12-25T06:49:24.076Z,84.50
2022-12-25T06:55:26.577Z,84.57
2022-12-25T07:01:58.440Z,84.83
2022-12-25T07:08:02.584Z,84.94
2022-12-25T07:14:04.580Z,85.18
2022-12-25T07:20:07.284Z,84.84
2022-12-25T07:26:11.980Z,84.94
2022-12-25T07:32:14.506Z,84.90
2022-12-25T07:38:19.012Z,84.88
2022-12-25T07:44:26.398Z,84.36
2022-12-25T07:50:31.860Z,83.93
2022-12-25T07:56:34.308Z,84.17
2022-12-25T08:02:37.012Z,83.80
2022-12-25T08:08:41.271Z,83.91
2022-12-25T08:14:43.744Z,83.49
2022-12-25T08:20:46.407Z,82.50
2022-12-25T08:26:52.461Z,81.23
2022-12-25T08:32:56.907Z,80.58
2022-12-25T08:39:03.364Z,81.32
2022-12-25T08:45:07.971Z,81.28
2022-12-25T08:51:15.607Z,81.36
2022-12-25T08:57:27.042Z,81.39
2022-12-25T09:03:36.594Z,81.18
2022-12-25T09:09:41.463Z,82.15
2022-12-25T09:15:43.513Z,81.90
2022-12-25T09:21:45.472Z,81.54
2022-12-25T09:27:52.886Z,81.83
2022-12-25T09:33:58.881Z,81.60
2022-12-25T09:40:01.326Z,81.72
2022-12-25T09:46:08.849Z,80.76
2022-12-25T09:52:39.665Z,79.33
2022-12-25T09:58:44.836Z,79.42
2022-12-25T10:05:28.449Z,77.63
2022-12-25T10:11:45.980Z,77.03
2022-12-25T10:17:54.484Z,78.22
2022-12-25T10:24:21.026Z,77.22
2022-12-25T10:30:30.852Z,76.20
2022-12-25T10:36:35.015Z,75.49
2022-12-25T10:42:49.867Z,75.40
2022-12-25T10:49:02.010Z,74.28
2022-12-25T10:55:28.784Z,74.11
2022-12-25T11:01:37.306Z,74.15
2022-12-25T11:07:55.662Z,73.86
2022-12-25T11:14:05.133Z,73.41
2022-12-25T11:20:17.673Z,72.68
2022-12-25T11:26:26.166Z,71.71
2022-12-25T11:32:56.741Z,72.13
2022-12-25T11:39:15.253Z,73.04
2022-12-25T11:45:32.778Z,69.44
2022-12-25T11:51:39.272Z,69.29
2022-12-25T11:57:47.727Z,70.13
2022-12-25T12:03:55.272Z,70.65
2022-12-25T12:10:22.353Z,70.59
2022-12-25T12:16:25.314Z,70.58
2022-12-25T12:22:29.693Z,70.75
2022-12-25T12:28:47.236Z,71.07
2022-12-25T12:34:54.643Z,71.50
2022-12-25T12:41:10.956Z,70.69
2022-12-25T12:47:37.847Z,72.18
2022-12-25T12:53:43.239Z,72.23
2022-12-25T12:59:48.763Z,71.71
2022-12-25T13:06:04.334Z,72.76
2022-12-25T13:12:08.668Z,71.04
2022-12-25T13:18:17.268Z,69.93
2022-12-25T13:24:25.733Z,68.24
2022-12-25T13:30:42.532Z,67.66
2022-12-25T13:36:44.717Z,67.17
2022-12-25T13:42:48.168Z,68.53
2022-12-25T13:49:01.086Z,69.30
2022-12-25T13:55:13.426Z,69.21
2022-12-25T14:01:16.768Z,70.02
2022-12-25T14:07:25.167Z,69.96
2022-12-25T14:13:31.742Z,70.78
2022-12-25T14:19:35.076Z,71.81
2022-12-25T14:25:46.570Z,72.09
2022-12-25T14:31:49.039Z,72.87
2022-12-25T14:38:00.624Z,73.46
2022-12-25T14:44:06.425Z,73.53
2022-12-25T14:50:16.595Z,74.47
2022-12-25T14:56:21.984Z,74.78
2022-12-25T15:02:25.663Z,74.18
2022-12-25T15:08:31.608Z,74.76
2022-12-25T15:14:37.420Z,75.05
2022-12-25T15:20:39.918Z,75.20
2022-12-25T15:26:46.359Z,75.34
2022-12-25T15:32:48.820Z,75.49
2022-12-25T15:38:54.285Z,75.26
2022-12-25T15:44:57.014Z,75.46
2022-12-25T15:50:58.960Z,75.51
2022-12-25T15:57:03.968Z,75.38
2022-12-25T16:03:05.972Z,75.05
2022-12-25T16:09:07.948Z,74.66
2022-12-25T16:15:13.141Z,74.58
2022-12-25T16:21:20.673Z,74.92
2022-12-25T16:27:23.071Z,75.44
2022-12-25T16:33:25.530Z,76.53
2022-12-25T16:39:29.021Z,76.96
2022-12-25T16:45:31.497Z,76.96
2022-12-25T16:51:35.965Z,77.52
2022-12-25T16:57:38.423Z,77.88
2022-12-25T17:03:40.974Z,78.27
2022-12-25T17:09:44.584Z,78.34
2022-12-25T17:15:50.360Z,78.17
2022-12-25T17:21:55.861Z,78.10
2022-12-25T17:27:57.614Z,77.68
2022-12-25T17:34:02.539Z,77.86
2022-12-25T17:40:05.687Z,79.79
2022-12-25T17:46:20.350Z,78.21
2022-12-25T17:52:25.736Z,78.78
2022-12-25T17:58:28.149Z,79.18
2022-12-25T18:04:33.651Z,79.36
2022-12-25T18:10:41.157Z,78.99
2022-12-25T18:16:48.521Z,78.58
2022-12-25T18:22:51.084Z,79.10
2022-12-25T18:28:56.597Z,79.57
2022-12-25T18:34:59.039Z,80.35
2022-12-25T18:41:06.488Z,79.21
2022-12-25T18:47:08.999Z,79.42
2022-12-25T18:53:11.441Z,79.85
2022-12-25T18:59:16.904Z,80.94
2022-12-25T19:05:18.811Z,81.00
2022-12-25T19:11:24.260Z,80.96
2022-12-25T19:17:31.571Z,79.39
2022-12-25T19:23:34.795Z,80.69
2022-12-25T19:29:37.263Z,79.24
2022-12-25T19:35:41.742Z,83.64
2022-12-25T19:41:47.212Z,81.14
2022-12-25T19:47:49.632Z,79.55
2022-12-25T19:53:54.108Z,81.69
2022-12-25T19:59:57.579Z,78.87
2022-12-25T20:06:00.055Z,78.59
2022-12-25T20:12:03.582Z,78.57
2022-12-25T20:18:06.043Z,78.80
2022-12-25T20:24:10.509Z,78.51
2022-12-25T20:30:12.975Z,78.96
2022-12-25T20:36:15.883Z,79.44
2022-12-25T20:42:20.507Z,82.15
2022-12-25T20:48:22.600Z,80.09
2022-12-25T20:54:24.284Z,82.46
2022-12-25T21:00:26.178Z,79.99
2022-12-25T21:06:28.806Z,79.63
2022-12-25T21:12:31.201Z,80.04
2022-12-25T21:18:35.107Z,79.27
2022-12-25T21:24:37.185Z,79.82
2022-12-25T21:30:39.657Z,79.33
2022-12-25T21:36:42.146Z,78.64
2022-12-25T21:42:47.623Z,80.21
2022-12-25T21:48:50.090Z,85.10
2022-12-25T21:54:53.562Z,80.28
2022-12-25T22:00:55.515Z,79.79
2022-12-25T22:07:16.597Z,80.66
2022-12-25T22:13:41.195Z,79.47
2022-12-25T22:19:49.634Z,83.94
2022-12-25T22:25:52.081Z,86.29
2022-12-25T22:31:54.588Z,82.04
2022-12-25T22:37:58.947Z,80.55
2022-12-25T22:44:18.028Z,82.76
2022-12-25T22:50:21.018Z,85.55
2022-12-25T22:56:26.331Z,84.85
2022-12-25T23:02:29.165Z,82.57
2022-12-25T23:08:32.416Z,80.44
2022-12-25T23:14:45.098Z,85.04
2022-12-25T23:21:05.435Z,81.12
2022-12-25T23:27:07.915Z,83.84
2022-12-25T23:33:10.379Z,87.04
2022-12-25T23:39:12.828Z,84.61
2022-12-25T23:45:14.925Z,84.98
2022-12-25T23:51:18.769Z,84.45
2022-12-25T23:57:21.741Z,83.36
